Time;durP1;ratioP1;P1;durP2;ratioP2;P2;SDS_P1;SDS_P2;PMS_P1;PMS_P2;Temp;Humidity;BMP_temperature;BMP_pressure;BME280_temperature;BME280_humidity;BME280_pressure;Samples;Min_cycle;Max_cycle;Signal;HPM_P1;HPM_P2
2021/11/13 00:01:58;;;;;;;58.08;26.07;;;;;;;0.09;100.00;100927.44;1701721;83;21066;-81
2021/11/13 00:04:24;;;;;;;50.98;22.75;;;;;;;0.05;100.00;100926.93;1681373;84;21150;-82
2021/11/13 00:06:52;;;;;;;52.05;23.07;;;;;;;-0.03;100.00;100931.94;1663835;84;21075;-79
2021/11/13 00:09:19;;;;;;;47.33;21.10;;;;;;;-0.10;100.00;100930.08;1668893;85;21099;-80
2021/11/13 00:11:45;;;;;;;45.28;20.25;;;;;;;-0.13;100.00;100926.58;1668720;85;21098;-80
2021/11/13 00:14:17;;;;;;;48.08;21.30;;;;;;;-0.17;100.00;100931.24;1668827;86;21596;-80
2021/11/13 00:16:42;;;;;;;45.95;21.37;;;;;;;-0.24;100.00;100927.23;1668532;85;22261;-81
2021/11/13 00:19:10;;;;;;;53.13;22.70;;;;;;;-0.29;100.00;100925.41;1668948;85;21040;-80
2021/11/13 00:21:37;;;;;;;47.50;20.88;;;;;;;-0.31;100.00;100935.72;1669249;85;21642;-79
2021/11/13 00:24:04;;;;;;;33.90;15.80;;;;;;;-0.33;100.00;100924.45;1669021;84;21136;-79
2021/11/13 00:26:30;;;;;;;32.05;14.85;;;;;;;-0.30;100.00;100940.07;1668737;85;21109;-79
2021/11/13 00:28:57;;;;;;;41.40;17.90;;;;;;;-0.34;100.00;100933.08;1668415;85;21846;-78
2021/11/13 00:31:24;;;;;;;45.45;20.72;;;;;;;-0.38;100.00;100931.69;1656880;85;21058;-80
2021/11/13 00:33:52;;;;;;;46.15;19.62;;;;;;;-0.44;100.00;100933.72;1669038;86;21138;-80
2021/11/13 00:36:18;;;;;;;39.30;18.82;;;;;;;-0.49;100.00;100942.67;1631466;87;21088;-79
2021/11/13 00:38:44;;;;;;;28.80;14.15;;;;;;;-0.54;100.00;100944.73;1669395;85;21090;-81
2021/11/13 00:41:11;;;;;;;34.38;16.60;;;;;;;-0.58;100.00;100942.91;1669330;86;21102;-81
2021/11/13 00:43:38;;;;;;;28.98;12.65;;;;;;;-0.58;100.00;100940.33;1669305;86;21364;-83
2021/11/13 00:46:05;;;;;;;47.78;21.07;;;;;;;-0.59;100.00;100941.18;1670191;86;21073;-81
2021/11/13 00:48:32;;;;;;;53.98;22.27;;;;;;;-0.61;100.00;100938.55;1669484;86;21085;-77
2021/11/13 00:50:59;;;;;;;61.92;26.40;;;;;;;-0.60;100.00;100939.41;1669164;86;21082;-76
2021/11/13 00:53:25;;;;;;;53.42;23.35;;;;;;;-0.59;100.00;100932.98;1669259;85;21537;-75
2021/11/13 00:55:52;;;;;;;52.27;23.35;;;;;;;-0.55;100.00;100942.97;1669201;85;21561;-83
2021/11/13 00:58:19;;;;;;;50.43;21.42;;;;;;;-0.53;100.00;100945.17;1671206;85;21106;-82
2021/11/13 01:00:46;;;;;;;56.77;23.87;;;;;;;-0.53;100.00;100946.46;1669571;86;21106;-80
2021/11/13 01:03:12;;;;;;;54.15;21.97;;;;;;;-0.57;100.00;100945.97;1669324;85;21070;-75
2021/11/13 01:05:40;;;;;;;54.03;23.75;;;;;;;-0.57;100.00;100940.80;1670145;86;21194;-85
2021/11/13 01:08:06;;;;;;;56.70;23.83;;;;;;;-0.56;100.00;100939.94;1682076;84;21517;-84
2021/11/13 01:10:34;;;;;;;49.67;22.73;;;;;;;-0.55;100.00;100940.38;1700200;84;21110;-86
2021/11/13 01:13:00;;;;;;;54.20;22.82;;;;;;;-0.55;100.00;100935.20;1699661;84;21097;-85
2021/11/13 01:15:27;;;;;;;48.30;21.52;;;;;;;-0.57;100.00;100929.16;1698150;84;21054;-81
2021/11/13 01:17:56;;;;;;;53.30;23.02;;;;;;;-0.60;100.00;100936.83;1698596;84;21086;-81
2021/11/13 01:20:24;;;;;;;30.45;14.35;;;;;;;-0.64;100.00;100931.59;1697893;84;21066;-83
2021/11/13 01:22:52;;;;;;;31.50;14.50;;;;;;;-0.66;100.00;100938.45;1698030;84;22067;-83
2021/11/13 01:25:19;;;;;;;24.50;11.97;;;;;;;-0.68;100.00;100938.83;1697932;84;21038;-82
2021/11/13 01:27:48;;;;;;;37.63;16.55;;;;;;;-0.72;100.00;100942.19;1697964;84;21538;-84
2021/11/13 01:30:14;;;;;;;39.70;18.70;;;;;;;-0.76;100.00;100949.45;1697887;84;21211;-84
2021/11/13 01:32:43;;;;;;;38.75;15.85;;;;;;;-0.81;100.00;100944.56;1698338;84;21071;-82
2021/11/13 01:35:10;;;;;;;42.23;19.05;;;;;;;-0.85;100.00;100945.37;1697710;84;21649;-82
2021/11/13 01:37:37;;;;;;;49.67;21.85;;;;;;;-0.89;100.00;100947.42;1697402;84;21054;-82
2021/11/13 01:40:07;;;;;;;50.00;22.13;;;;;;;-0.91;100.00;100947.38;1697286;84;21521;-80
2021/11/13 01:42:34;;;;;;;55.55;24.23;;;;;;;-0.92;100.00;100948.23;1698677;84;21109;-83
2021/11/13 01:45:01;;;;;;;54.40;23.70;;;;;;;-0.94;100.00;100953.78;1698317;84;21031;-84
2021/11/13 01:47:27;;;;;;;59.65;27.40;;;;;;;-0.94;100.00;100946.45;1689589;84;21075;-82
2021/11/13 01:49:55;;;;;;;59.00;25.30;;;;;;;-0.93;100.00;100950.77;1670915;86;21017;-80
2021/11/13 01:52:23;;;;;;;51.18;22.87;;;;;;;-0.94;100.00;100961.97;1671226;86;21551;-81
2021/11/13 01:54:52;;;;;;;49.27;22.20;;;;;;;-0.92;100.00;100960.26;1697524;84;21051;-82
2021/11/13 01:57:32;;;;;;;55.98;22.67;;;;;;;-0.94;100.00;100961.97;1698627;84;21058;-82
2021/11/13 01:59:51;;;;;;;32.83;14.80;;;;;;;-0.98;100.00;100957.55;1695361;84;21505;-81
2021/11/13 02:02:18;;;;;;;30.35;13.83;;;;;;;-1.03;100.00;100963.05;1697459;84;21609;-80
2021/11/13 02:04:45;;;;;;;37.13;16.70;;;;;;;-1.06;100.00;100965.11;1697593;84;21149;-82
2021/11/13 02:07:12;;;;;;;39.20;17.00;;;;;;;-1.09;100.00;100964.62;1697480;84;21846;-82
2021/11/13 02:09:38;;;;;;;41.35;17.67;;;;;;;-1.12;100.00;100962.41;1697667;84;21054;-85
2021/11/13 02:12:08;;;;;;;32.85;14.47;;;;;;;-1.18;100.00;100970.00;1698365;84;21077;-81
2021/11/13 02:14:36;;;;;;;30.05;15.23;;;;;;;-1.21;100.00;100972.52;1697874;84;21074;-82
2021/11/13 02:17:04;;;;;;;30.82;14.33;;;;;;;-1.26;100.00;100976.28;1698087;84;21066;-81
2021/11/13 02:19:30;;;;;;;39.08;17.12;;;;;;;-1.28;100.00;100972.78;1697371;84;21122;-81
2021/11/13 02:22:00;;;;;;;42.35;17.25;;;;;;;-1.31;100.00;100971.42;1698040;84;21022;-83
2021/11/13 02:24:27;;;;;;;50.07;18.80;;;;;;;-1.32;100.00;100976.13;1697981;84;21069;-84
2021/11/13 02:26:55;;;;;;;41.90;18.32;;;;;;;-1.32;100.00;100973.54;1697948;84;20999;-81
2021/11/13 02:29:21;;;;;;;44.42;19.80;;;;;;;-1.32;100.00;100976.13;1697239;84;21098;-81
2021/11/13 02:31:48;;;;;;;45.60;20.00;;;;;;;-1.35;100.00;100974.34;1698052;84;21566;-86
2021/11/13 02:34:15;;;;;;;55.33;23.40;;;;;;;-1.37;100.00;100974.72;1698069;84;21078;-84
2021/11/13 02:36:42;;;;;;;56.30;24.67;;;;;;;-1.35;100.00;100974.77;1698143;84;21031;-83
2021/11/13 02:39:12;;;;;;;57.35;22.40;;;;;;;-1.30;100.00;100974.03;1698142;84;21022;-84
2021/11/13 02:41:42;;;;;;;58.48;27.00;;;;;;;-1.22;100.00;100966.48;1698335;84;21026;-83
2021/11/13 02:44:08;;;;;;;45.63;19.40;;;;;;;-1.15;100.00;100970.96;1698646;84;21166;-83
2021/11/13 02:46:35;;;;;;;67.32;28.95;;;;;;;-1.10;100.00;100974.52;1698978;84;21483;-82
2021/11/13 02:49:05;;;;;;;39.38;16.77;;;;;;;-1.03;100.00;100977.27;1698378;84;21074;-82
2021/11/13 02:51:31;;;;;;;37.70;15.65;;;;;;;-0.99;100.00;100975.18;1674238;84;21077;-82
2021/11/13 02:53:58;;;;;;;38.10;17.87;;;;;;;-1.00;100.00;100972.16;1697522;84;21034;-81
2021/11/13 02:56:24;;;;;;;50.40;20.75;;;;;;;-1.02;100.00;100975.13;1697388;84;21399;-83
2021/11/13 02:58:51;;;;;;;31.20;13.55;;;;;;;-1.08;100.00;100977.16;1697274;84;21066;-80
2021/11/13 03:01:21;;;;;;;46.15;19.87;;;;;;;-1.14;100.00;100984.33;1697427;84;21070;-79
2021/11/13 03:03:51;;;;;;;45.65;19.62;;;;;;;-1.19;100.00;100979.90;1697300;84;21513;-79
2021/11/13 03:06:20;;;;;;;51.40;22.87;;;;;;;-1.24;100.00;100978.88;1697123;84;21332;-80
2021/11/13 03:08:49;;;;;;;46.98;21.37;;;;;;;-1.29;100.00;100982.64;1700330;84;21090;-80
2021/11/13 03:11:16;;;;;;;44.90;19.35;;;;;;;-1.33;100.00;100988.60;1705833;84;21101;-80
2021/11/13 03:13:46;;;;;;;46.48;20.60;;;;;;;-1.37;100.00;100997.11;1706046;84;21661;-78
2021/11/13 03:16:14;;;;;;;48.33;19.60;;;;;;;-1.41;100.00;101001.73;1706554;84;21652;-81
2021/11/13 03:18:41;;;;;;;42.67;19.50;;;;;;;-1.46;100.00;101005.91;1706697;84;21121;-82
2021/11/13 03:21:08;;;;;;;44.73;19.52;;;;;;;-1.50;100.00;101010.98;1707316;84;21088;-83
2021/11/13 03:23:46;;;;;;;45.00;19.30;;;;;;;-1.54;100.00;101009.17;1707234;84;21089;-82
2021/11/13 03:26:24;;;;;;;48.08;19.42;;;;;;;-1.59;100.00;101001.70;1707061;84;21534;-77
2021/11/13 03:29:07;;;;;;;47.95;19.80;;;;;;;-1.65;100.00;101000.27;1706500;84;21046;-77
2021/11/13 03:31:35;;;;;;;43.68;18.42;;;;;;;-1.67;100.00;101005.80;1706168;84;21596;-79
2021/11/13 03:34:04;;;;;;;53.38;21.70;;;;;;;-1.70;100.00;101009.61;1704970;83;21157;-81
2021/11/13 03:36:32;;;;;;;52.33;21.62;;;;;;;-1.71;100.00;101010.42;1706566;84;21057;-80
2021/11/13 03:38:59;;;;;;;44.75;20.82;;;;;;;-1.75;100.00;101012.45;1700860;84;21059;-82
2021/11/13 03:41:28;;;;;;;47.27;21.07;;;;;;;-1.75;100.00;101004.70;1668484;86;21046;-82
2021/11/13 03:43:54;;;;;;;52.08;22.90;;;;;;;-1.77;100.00;101001.20;1668458;86;21031;-81
2021/11/13 03:46:20;;;;;;;58.23;25.68;;;;;;;-1.79;100.00;101001.19;1668035;86;21544;-82
2021/11/13 03:48:47;;;;;;;51.25;23.45;;;;;;;-1.80;100.00;100999.84;1668493;85;21039;-87
2021/11/13 03:51:14;;;;;;;47.75;21.75;;;;;;;-1.80;100.00;101005.01;1668245;86;21070;-82
2021/11/13 03:53:40;;;;;;;49.38;21.15;;;;;;;-1.83;100.00;101011.39;1667969;86;21070;-80
2021/11/13 03:56:06;;;;;;;51.45;22.15;;;;;;;-1.83;100.00;101004.94;1668434;86;21059;-82
2021/11/13 03:58:34;;;;;;;54.25;22.00;;;;;;;-1.90;100.00;101008.62;1668521;86;21549;-83
2021/11/13 04:01:01;;;;;;;50.52;21.40;;;;;;;-1.94;100.00;101014.53;1668440;86;21522;-83
2021/11/13 04:03:28;;;;;;;55.35;22.80;;;;;;;-1.97;100.00;101013.17;1668145;86;21093;-81
2021/11/13 04:05:56;;;;;;;59.85;23.75;;;;;;;-2.01;100.00;101013.91;1668833;86;21030;-85
2021/11/13 04:08:23;;;;;;;62.30;24.87;;;;;;;-2.02;100.00;101013.47;1669260;85;21101;-85
2021/11/13 04:10:51;;;;;;;48.58;20.55;;;;;;;-2.03;100.00;101019.44;1668869;85;21154;-86
2021/11/13 04:13:20;;;;;;;59.75;24.30;;;;;;;-2.05;100.00;101024.97;1668700;85;21026;-86
2021/11/13 04:15:47;;;;;;;48.05;20.32;;;;;;;-2.07;100.00;101015.05;1669963;85;21070;-84
2021/11/13 04:18:14;;;;;;;57.20;25.12;;;;;;;-2.08;100.00;101018.44;1670235;85;21094;-86
2021/11/13 04:20:42;;;;;;;54.90;25.08;;;;;;;-2.10;100.00;101023.97;1669937;86;21573;-85
2021/11/13 04:23:10;;;;;;;60.67;26.12;;;;;;;-2.10;100.00;101018.81;1670529;86;21527;-87
2021/11/13 04:25:37;;;;;;;59.50;25.52;;;;;;;-2.12;100.00;101021.75;1669931;86;21153;-86
2021/11/13 04:28:03;;;;;;;57.58;25.05;;;;;;;-2.11;100.00;101020.95;1678579;84;21023;-79
2021/11/13 04:30:32;;;;;;;57.40;23.45;;;;;;;-2.09;100.00;101028.71;1705549;84;21014;-80
2021/11/13 04:32:59;;;;;;;64.10;26.52;;;;;;;-2.10;100.00;101027.84;1694205;84;21114;-84
2021/11/13 04:38:00;;;;;;;59.98;25.15;;;;;;;-2.10;100.00;101030.42;1695812;84;21055;-77
2021/11/13 04:40:31;;;;;;;60.55;26.82;;;;;;;-2.11;100.00;101026.11;1696347;84;21102;-77
2021/11/13 04:42:57;;;;;;;49.10;21.65;;;;;;;-2.13;100.00;101032.92;1696022;84;21537;-80
2021/11/13 04:45:24;;;;;;;45.33;19.05;;;;;;;-2.16;100.00;101041.45;1696002;84;21066;-79
2021/11/13 04:47:51;;;;;;;53.55;22.62;;;;;;;-2.19;100.00;101043.06;1700165;84;21135;-74
2021/11/13 04:51:55;;;;;;;50.47;22.30;;;;;;;-2.19;100.00;101048.22;1813279;79;22660;-76
2021/11/13 04:54:22;;;;;;;52.73;21.27;;;;;;;-2.27;100.00;101049.72;1786140;80;21045;-76
2021/11/13 04:56:50;;;;;;;55.67;22.60;;;;;;;-2.30;100.00;101055.66;1786512;80;21130;-78
2021/11/13 04:59:18;;;;;;;56.63;25.27;;;;;;;-2.33;100.00;101056.42;1786722;80;20977;-80
2021/11/13 05:01:45;;;;;;;60.15;24.77;;;;;;;-2.35;100.00;101056.81;1788282;80;21500;-74
2021/11/13 05:04:13;;;;;;;45.70;20.40;;;;;;;-2.38;100.00;101054.13;1774774;80;21177;-81
2021/11/13 05:06:39;;;;;;;46.80;20.32;;;;;;;-2.40;100.00;101062.22;1757040;80;21043;-82
2021/11/13 05:09:06;;;;;;;57.23;24.15;;;;;;;-2.41;100.00;101057.91;1781861;80;21116;-82
2021/11/13 05:11:34;;;;;;;49.85;22.62;;;;;;;-2.42;100.00;101059.14;1714143;83;20967;-81
2021/11/13 05:14:00;;;;;;;51.13;21.97;;;;;;;-2.45;100.00;101063.80;1713955;83;20993;-80
2021/11/13 05:16:27;;;;;;;53.73;23.77;;;;;;;-2.44;100.00;101064.28;1725327;83;21046;-83
2021/11/13 05:18:55;;;;;;;57.20;24.20;;;;;;;-2.46;100.00;101064.64;1689590;83;21105;-83
2021/11/13 05:21:21;;;;;;;53.33;23.73;;;;;;;-2.46;100.00;101067.61;1729252;83;21150;-83
2021/11/13 05:23:49;;;;;;;50.28;21.87;;;;;;;-2.48;100.00;101063.72;1729053;83;21025;-84
2021/11/13 05:26:16;;;;;;;56.73;23.30;;;;;;;-2.47;100.00;101068.03;1727724;83;21110;-84
2021/11/13 05:28:44;;;;;;;56.73;25.15;;;;;;;-2.48;100.00;101076.61;1727765;83;21039;-82
2021/11/13 05:31:12;;;;;;;55.50;24.07;;;;;;;-2.45;100.00;101078.41;1729304;83;21008;-82
2021/11/13 05:33:41;;;;;;;59.63;25.30;;;;;;;-2.43;100.00;101080.63;1730138;83;21185;-84
2021/11/13 05:36:09;;;;;;;59.38;25.68;;;;;;;-2.43;100.00;101081.49;1730569;83;21502;-83
2021/11/13 05:38:36;;;;;;;62.25;25.62;;;;;;;-2.40;100.00;101097.05;1728866;83;21571;-84
2021/11/13 05:41:02;;;;;;;53.13;23.45;;;;;;;-2.36;100.00;101101.91;1727244;83;22214;-84
2021/11/13 05:43:29;;;;;;;59.80;25.72;;;;;;;-2.33;100.00;101104.16;1726988;83;21048;-84
2021/11/13 05:45:55;;;;;;;64.80;28.35;;;;;;;-2.28;100.00;101107.30;1727945;83;21131;-83
2021/11/13 05:48:23;;;;;;;58.02;25.32;;;;;;;-2.25;100.00;101112.57;1724434;83;21044;-84
2021/11/13 05:50:50;;;;;;;62.38;24.43;;;;;;;-2.19;100.00;101120.48;1715976;83;21071;-83
2021/11/13 05:53:17;;;;;;;60.95;25.48;;;;;;;-2.13;100.00;101123.26;1748795;80;21621;-83
2021/11/13 05:55:45;;;;;;;56.65;23.92;;;;;;;-2.06;100.00;101125.19;1762389;80;21054;-83
2021/11/13 05:58:13;;;;;;;53.23;22.85;;;;;;;-1.97;100.00;101131.92;1744837;80;21542;-83
2021/11/13 06:00:39;;;;;;;57.45;23.15;;;;;;;-1.86;100.00;101135.22;1743549;82;21069;-84
2021/11/13 06:03:08;;;;;;;58.65;24.18;;;;;;;-1.75;100.00;101131.25;1743282;82;21050;-83
2021/11/13 06:05:35;;;;;;;53.45;23.65;;;;;;;-1.63;100.00;101133.30;1743082;81;21061;-84
2021/11/13 06:08:02;;;;;;;67.72;26.95;;;;;;;-1.48;100.00;101138.49;1743191;82;21018;-84
2021/11/13 06:10:28;;;;;;;53.00;23.05;;;;;;;-1.21;100.00;101138.81;1742841;82;21122;-85
2021/11/13 06:12:58;;;;;;;61.90;25.85;;;;;;;-0.86;100.00;101136.27;1743774;82;22039;-85
2021/11/13 06:15:24;;;;;;;94.85;35.52;;;;;;;-0.51;100.00;101136.27;1748261;80;21006;-85
2021/11/13 06:17:51;;;;;;;71.85;29.75;;;;;;;-0.29;100.00;101141.55;1771659;80;21379;-84
2021/11/13 06:20:18;;;;;;;95.70;35.65;;;;;;;-0.12;100.00;101144.09;1767299;80;21025;-83
2021/11/13 06:22:45;;;;;;;69.12;30.95;;;;;;;0.01;100.00;101149.56;1735406;82;21135;-84
2021/11/13 06:25:13;;;;;;;83.30;32.90;;;;;;;0.07;100.00;101149.28;1741106;80;20991;-85
2021/11/13 06:27:43;;;;;;;72.58;29.15;;;;;;;0.10;100.00;101142.00;1743963;80;20982;-81
2021/11/13 06:30:11;;;;;;;75.78;30.43;;;;;;;0.18;100.00;101152.98;1761536;80;21089;-85
2021/11/13 06:32:38;;;;;;;79.58;33.53;;;;;;;0.26;100.00;101152.27;1772845;80;22057;-82
2021/11/13 06:35:07;;;;;;;72.10;30.65;;;;;;;0.31;100.00;101157.98;1769663;80;21117;-87
2021/11/13 06:37:36;;;;;;;76.70;32.70;;;;;;;0.36;100.00;101158.09;1772363;80;28044;-84
2021/11/13 06:40:04;;;;;;;77.42;30.43;;;;;;;0.43;100.00;101156.07;1763930;80;22195;-85
2021/11/13 06:42:30;;;;;;;68.02;28.95;;;;;;;0.48;100.00;101151.84;1763983;80;21113;-85
2021/11/13 06:44:57;;;;;;;66.57;29.82;;;;;;;0.57;100.00;101151.17;1766976;80;21104;-85
2021/11/13 06:47:24;;;;;;;77.33;33.63;;;;;;;0.65;100.00;101153.94;1769444;80;21140;-86
2021/11/13 06:49:53;;;;;;;101.65;36.50;;;;;;;0.71;100.00;101145.83;1754048;80;21008;-86
2021/11/13 06:52:20;;;;;;;132.60;48.40;;;;;;;0.75;100.00;101149.37;1764170;80;21077;-84
2021/11/13 06:54:47;;;;;;;165.73;58.20;;;;;;;0.84;100.00;101158.63;1768658;80;20984;-85
2021/11/13 06:57:13;;;;;;;163.75;58.15;;;;;;;0.91;100.00;101158.31;1762858;80;21136;-84
2021/11/13 06:59:40;;;;;;;147.50;52.10;;;;;;;0.98;100.00;101159.75;1752046;82;21171;-86
2021/11/13 07:02:10;;;;;;;130.72;49.63;;;;;;;1.10;100.00;101158.23;1714896;83;21018;-79
2021/11/13 07:04:37;;;;;;;136.75;48.87;;;;;;;1.22;100.00;101170.11;1751189;80;21006;-86
2021/11/13 07:07:04;;;;;;;120.25;42.65;;;;;;;1.32;100.00;101172.04;1778667;79;21140;-85
2021/11/13 07:09:31;;;;;;;103.85;39.88;;;;;;;1.42;100.00;101172.63;1783694;80;21021;-85
2021/11/13 07:11:58;;;;;;;130.22;47.03;;;;;;;1.58;100.00;101171.59;1756189;80;21153;-86
2021/11/13 07:14:27;;;;;;;111.88;41.55;;;;;;;1.71;100.00;101170.95;1768723;80;21528;-87
2021/11/13 07:16:55;;;;;;;108.78;39.67;;;;;;;1.82;100.00;101164.20;1770453;80;20982;-83
2021/11/13 07:19:22;;;;;;;93.70;36.45;;;;;;;1.95;100.00;101166.98;1742695;82;21038;-84
2021/11/13 07:21:48;;;;;;;76.67;32.50;;;;;;;2.06;100.00;101168.87;1742662;82;21006;-84
2021/11/13 07:24:15;;;;;;;94.45;32.63;;;;;;;2.18;100.00;101173.37;1743397;80;21069;-86
2021/11/13 07:26:41;;;;;;;101.58;34.83;;;;;;;2.32;100.00;101176.16;1776013;80;21017;-84
2021/11/13 07:29:12;;;;;;;90.97;33.70;;;;;;;2.41;100.00;101176.71;1777854;80;21045;-84
2021/11/13 07:31:38;;;;;;;114.75;32.83;;;;;;;2.47;100.00;101179.41;1775651;80;21452;-85
2021/11/13 07:34:06;;;;;;;77.32;24.80;;;;;;;2.55;100.00;101179.48;1759332;80;21037;-84
2021/11/13 07:36:33;;;;;;;68.40;27.85;;;;;;;2.63;100.00;101172.67;1742022;82;21144;-85
2021/11/13 07:38:59;;;;;;;70.52;30.15;;;;;;;2.75;100.00;101178.01;1757207;79;21624;-85
2021/11/13 07:41:27;;;;;;;116.77;30.20;;;;;;;2.82;100.00;101176.35;1774949;80;21105;-84
2021/11/13 07:43:56;;;;;;;97.70;30.90;;;;;;;2.81;100.00;101176.79;1782626;80;21033;-83
2021/11/13 07:46:26;;;;;;;82.90;31.85;;;;;;;2.80;100.00;101178.06;1773169;80;20997;-84
2021/11/13 07:48:52;;;;;;;62.55;28.35;;;;;;;2.83;100.00;101184.59;1756535;80;21503;-83
2021/11/13 07:51:21;;;;;;;61.58;26.30;;;;;;;2.93;100.00;101183.86;1741235;81;21447;-86
2021/11/13 07:53:49;;;;;;;58.30;27.42;;;;;;;3.08;100.00;101184.03;1744301;80;21025;-85
2021/11/13 07:56:15;;;;;;;64.30;28.52;;;;;;;3.22;100.00;101184.58;1768085;80;21001;-84
2021/11/13 07:58:42;;;;;;;64.50;27.05;;;;;;;3.33;100.00;101184.25;1706318;84;21009;-87
2021/11/13 08:01:08;;;;;;;71.22;27.45;;;;;;;3.46;100.00;101189.16;1768510;81;21037;-87
2021/11/13 08:03:35;;;;;;;71.42;28.90;;;;;;;3.51;100.00;101190.94;1702225;84;21114;-88
2021/11/13 08:06:02;;;;;;;60.67;28.73;;;;;;;3.45;100.00;101192.20;1672952;84;21095;-81
2021/11/13 08:08:29;;;;;;;68.75;29.00;;;;;;;3.41;100.00;101185.22;1742464;82;21061;-82
2021/11/13 08:10:58;;;;;;;63.20;27.62;;;;;;;3.47;100.00;101183.08;1742254;82;21014;-82
2021/11/13 08:13:24;;;;;;;55.80;24.15;;;;;;;3.50;100.00;101183.99;1706381;84;21162;-81
2021/11/13 08:15:52;;;;;;;54.13;23.80;;;;;;;3.60;100.00;101173.66;1717408;82;21609;-81
2021/11/13 08:18:19;;;;;;;58.60;25.15;;;;;;;3.72;100.00;101180.25;1772946;80;21089;-80
2021/11/13 08:20:45;;;;;;;58.68;27.60;;;;;;;3.79;100.00;101177.70;1772863;80;21034;-80
2021/11/13 08:23:14;;;;;;;50.98;23.75;;;;;;;3.89;100.00;101176.05;1772777;80;21041;-80
2021/11/13 08:25:42;;;;;;;67.82;28.05;;;;;;;4.02;100.00;101176.13;1772839;80;21133;-80
2021/11/13 08:28:10;;;;;;;75.72;30.90;;;;;;;4.09;100.00;101176.60;1773060;80;21049;-80
2021/11/13 08:30:36;;;;;;;103.07;31.85;;;;;;;4.19;100.00;101169.30;1746911;80;22113;-80
2021/11/13 08:33:06;;;;;;;81.97;31.75;;;;;;;4.25;100.00;101169.31;1765452;80;21033;-81
2021/11/13 08:35:38;;;;;;;61.85;28.55;;;;;;;4.23;100.00;101173.64;1772866;80;21105;-80
2021/11/13 08:38:05;;;;;;;79.25;31.42;;;;;;;4.24;100.00;101185.83;1736671;80;22135;-80
2021/11/13 08:40:32;;;;;;;91.53;34.27;;;;;;;4.30;100.00;101185.87;1733582;82;21498;-80
2021/11/13 08:42:59;;;;;;;99.52;35.40;;;;;;;4.28;100.00;101189.31;1734280;82;21018;-80
2021/11/13 08:45:25;;;;;;;82.15;35.25;;;;;;;4.24;100.00;101192.34;1733637;82;21100;-80
2021/11/13 08:47:52;;;;;;;69.15;29.72;;;;;;;4.23;100.00;101198.84;1734245;82;21003;-80
2021/11/13 08:50:23;;;;;;;73.40;31.17;;;;;;;4.25;100.00;101197.98;1738190;81;21549;-81
2021/11/13 08:52:53;;;;;;;81.02;35.63;;;;;;;4.39;100.00;101202.87;1753337;80;21283;-81
2021/11/13 08:55:24;;;;;;;80.95;35.08;;;;;;;4.55;100.00;101197.28;1755318;81;21049;-81
2021/11/13 08:57:51;;;;;;;77.10;32.25;;;;;;;4.65;100.00;101194.71;1755132;81;21046;-80
2021/11/13 09:00:29;;;;;;;77.15;32.80;;;;;;;4.70;100.00;101191.27;1750511;81;21572;-78
2021/11/13 09:02:57;;;;;;;83.95;36.53;;;;;;;4.78;100.00;101188.24;1691879;83;21478;-80
2021/11/13 09:05:24;;;;;;;76.35;34.27;;;;;;;4.91;100.00;101187.00;1765277;81;21686;-81
2021/11/13 09:07:54;;;;;;;86.85;36.65;;;;;;;5.04;100.00;101190.09;1765875;80;21511;-81
2021/11/13 09:10:22;;;;;;;68.40;31.15;;;;;;;5.24;100.00;101188.80;1765614;81;21036;-80
2021/11/13 09:12:48;;;;;;;72.30;32.42;;;;;;;5.26;100.00;101193.16;1751483;81;21081;-80
2021/11/13 09:15:23;;;;;;;67.10;31.70;;;;;;;5.34;100.00;101191.89;1746574;81;21628;-81
2021/11/13 09:17:49;;;;;;;71.65;32.25;;;;;;;5.47;100.00;101194.06;1746973;81;21314;-80
2021/11/13 09:20:18;;;;;;;64.60;30.32;;;;;;;5.65;100.00;101196.69;1746662;82;21314;-80
2021/11/13 09:22:45;;;;;;;71.30;30.45;;;;;;;5.95;100.00;101192.36;1746965;81;21124;-79
2021/11/13 09:25:13;;;;;;;68.02;30.88;;;;;;;6.38;100.00;101192.73;1746489;82;21037;-80
2021/11/13 09:27:44;;;;;;;71.77;34.78;;;;;;;6.95;100.00;101192.06;1746832;81;21489;-81
2021/11/13 09:30:14;;;;;;;76.28;34.90;;;;;;;7.62;99.12;101180.27;1760915;81;21014;-81
2021/11/13 09:32:43;;;;;;;71.25;32.08;;;;;;;8.26;92.16;101180.11;1735382;82;21102;-79
2021/11/13 09:35:10;;;;;;;57.62;30.62;;;;;;;8.81;89.08;101170.71;1735138;82;21002;-79
2021/11/13 09:37:39;;;;;;;68.28;32.35;;;;;;;9.43;86.34;101170.28;1735573;82;21053;-80
2021/11/13 09:40:09;;;;;;;65.55;30.12;;;;;;;9.94;85.79;101168.54;1735625;82;21855;-80
2021/11/13 09:42:37;;;;;;;66.75;32.15;;;;;;;10.76;84.46;101169.19;1735367;82;21030;-81
2021/11/13 09:45:05;;;;;;;57.13;30.62;;;;;;;11.60;77.19;101170.36;1735563;82;21014;-80
2021/11/13 09:47:34;;;;;;;57.17;31.12;;;;;;;12.03;73.46;101162.67;1736719;81;21676;-80
2021/11/13 09:50:06;;;;;;;56.08;29.60;;;;;;;12.38;70.52;101156.45;1760792;81;27198;-80
2021/11/13 09:52:34;;;;;;;54.42;25.52;;;;;;;12.64;69.26;101157.02;1774926;80;21046;-80
2021/11/13 09:55:01;;;;;;;39.48;22.73;;;;;;;12.99;67.76;101153.30;1781342;80;21093;-80
2021/11/13 09:57:28;;;;;;;35.33;21.20;;;;;;;13.30;65.00;101154.19;1781300;80;21056;-80
2021/11/13 09:59:55;;;;;;;34.20;22.13;;;;;;;13.64;65.07;101149.52;1781524;80;21040;-80
2021/11/13 10:02:23;;;;;;;38.70;23.32;;;;;;;14.17;62.57;101154.31;1781321;80;21084;-80
2021/11/13 10:04:50;;;;;;;38.78;21.65;;;;;;;14.43;58.11;101145.44;1777669;79;21219;-80
2021/11/13 10:07:16;;;;;;;31.87;21.45;;;;;;;14.55;58.48;101141.03;1758611;80;21029;-80
2021/11/13 10:09:47;;;;;;;31.50;20.30;;;;;;;14.90;57.57;101148.09;1755362;81;21049;-79
2021/11/13 10:12:13;;;;;;;39.70;20.97;;;;;;;15.41;56.34;101140.77;1750873;81;21041;-79
2021/11/13 10:14:42;;;;;;;32.73;20.82;;;;;;;15.81;54.14;101136.02;1723324;82;21092;-79
2021/11/13 10:17:22;;;;;;;31.02;19.32;;;;;;;16.01;53.67;101139.16;1750681;82;21049;-79
2021/11/13 10:19:49;;;;;;;33.63;19.75;;;;;;;16.26;52.58;101134.07;1750577;82;21038;-78
2021/11/13 10:22:17;;;;;;;27.60;16.12;;;;;;;16.48;50.83;101130.84;1750373;82;21029;-79
2021/11/13 10:24:50;;;;;;;30.57;18.32;;;;;;;16.77;52.06;101134.83;1750394;82;21085;-80
2021/11/13 10:27:16;;;;;;;;;;;;;;;17.26;49.46;101128.97;1753256;81;21088;-79
2021/11/13 10:29:46;;;;;;;31.17;16.67;;;;;;;17.40;47.93;101125.16;1750381;82;21115;-79
2021/11/13 10:32:18;;;;;;;26.57;16.75;;;;;;;17.50;47.96;101118.04;1752203;80;21063;-80
2021/11/13 10:34:49;;;;;;;31.30;17.73;;;;;;;17.71;46.44;101122.27;1755253;81;21569;-80
2021/11/13 10:37:19;;;;;;;27.48;15.78;;;;;;;17.81;44.67;101115.58;1755674;81;21049;-79
2021/11/13 10:39:46;;;;;;;29.37;16.67;;;;;;;18.03;44.44;101125.11;1755891;81;21030;-80
2021/11/13 10:42:19;;;;;;;26.75;16.25;;;;;;;18.26;41.52;101117.71;1755061;81;21155;-80
2021/11/13 10:44:58;;;;;;;25.97;14.93;;;;;;;18.10;41.46;101121.17;1755491;81;21596;-79
2021/11/13 10:47:34;;;;;;;28.70;14.98;;;;;;;18.03;41.80;101121.11;1755380;80;21081;-81
2021/11/13 10:50:19;;;;;;;22.50;14.73;;;;;;;18.37;41.31;101116.66;1755584;81;21029;-79
2021/11/13 10:53:08;;;;;;;31.42;17.10;;;;;;;18.47;40.48;101115.20;1748673;81;21632;-80
2021/11/13 10:56:08;;;;;;;48.60;14.93;;;;;;;18.30;40.18;101116.61;1757579;80;21164;-80
2021/11/13 10:58:58;;;;;;;25.48;13.80;;;;;;;18.25;40.41;101120.86;1773133;80;21597;-80
2021/11/13 11:01:40;;;;;;;23.00;13.83;;;;;;;18.60;39.94;101126.08;1772511;80;21087;-80
2021/11/13 11:04:17;;;;;;;20.20;12.05;;;;;;;19.00;39.92;101124.77;1773173;80;21042;-80
2021/11/13 11:06:51;;;;;;;18.02;10.50;;;;;;;19.47;39.49;101125.17;1772849;80;21555;-78
2021/11/13 11:09:29;;;;;;;20.10;11.12;;;;;;;19.72;36.79;101119.76;1772358;80;21519;-79
2021/11/13 11:12:03;;;;;;;21.27;11.65;;;;;;;19.56;36.96;101119.77;1772371;80;21136;-81
2021/11/13 11:14:31;;;;;;;20.77;11.95;;;;;;;19.47;36.98;101118.49;1739624;80;21070;-79